sensor_id;sensor_type;location;lat;lon;timestamp;P1;durP1;ratioP1;P2;durP2;ratioP2
12151;SDS011;6139;51.274;7.128;2023-05-10T00:00:42;6.70;;;6.03;;
12151;SDS011;6139;51.274;7.128;2023-05-10T00:01:43;6.45;;;5.85;;
12151;SDS011;6139;51.274;7.128;2023-05-10T00:02:45;7.03;;;6.30;;
12151;SDS011;6139;51.274;7.128;2023-05-10T00:03:47;9.20;;;6.57;;
12151;SDS011;6139;51.274;7.128;2023-05-10T00:04:49;6.97;;;6.07;;
12151;SDS011;6139;51.274;7.128;2023-05-10T00:05:50;7.03;;;6.13;;
12151;SDS011;6139;51.274;7.128;2023-05-10T00:06:52;6.80;;;6.20;;
12151;SDS011;6139;51.274;7.128;2023-05-10T00:07:53;8.30;;;7.03;;
12151;SDS011;6139;51.274;7.128;2023-05-10T00:08:55;7.55;;;6.82;;
12151;SDS011;6139;51.274;7.128;2023-05-10T00:09:56;7.50;;;6.68;;
12151;SDS011;6139;51.274;7.128;2023-05-10T00:10:58;7.78;;;6.97;;
12151;SDS011;6139;51.274;7.128;2023-05-10T00:11:59;6.78;;;6.07;;
12151;SDS011;6139;51.274;7.128;2023-05-10T00:13:01;7.05;;;6.35;;
12151;SDS011;6139;51.274;7.128;2023-05-10T00:14:02;7.72;;;6.93;;
12151;SDS011;6139;51.274;7.128;2023-05-10T00:15:05;7.47;;;6.22;;
12151;SDS011;6139;51.274;7.128;2023-05-10T00:16:07;6.68;;;5.97;;
12151;SDS011;6139;51.274;7.128;2023-05-10T00:17:09;7.10;;;6.40;;
12151;SDS011;6139;51.274;7.128;2023-05-10T00:18:10;6.93;;;6.22;;
12151;SDS011;6139;51.274;7.128;2023-05-10T00:19:13;7.22;;;6.53;;
12151;SDS011;6139;51.274;7.128;2023-05-10T00:20:14;7.35;;;6.60;;
12151;SDS011;6139;51.274;7.128;2023-05-10T00:21:16;7.28;;;6.50;;
12151;SDS011;6139;51.274;7.128;2023-05-10T00:22:17;8.02;;;6.90;;
12151;SDS011;6139;51.274;7.128;2023-05-10T00:23:19;8.13;;;6.93;;
12151;SDS011;6139;51.274;7.128;2023-05-10T00:24:20;7.57;;;6.68;;
12151;SDS011;6139;51.274;7.128;2023-05-10T00:25:22;7.82;;;7.03;;
12151;SDS011;6139;51.274;7.128;2023-05-10T00:26:23;7.60;;;6.88;;
12151;SDS011;6139;51.274;7.128;2023-05-10T00:27:28;7.22;;;6.53;;
12151;SDS011;6139;51.274;7.128;2023-05-10T00:28:29;8.55;;;7.05;;
12151;SDS011;6139;51.274;7.128;2023-05-10T00:29:31;8.15;;;7.30;;
12151;SDS011;6139;51.274;7.128;2023-05-10T00:30:32;7.82;;;6.97;;
12151;SDS011;6139;51.274;7.128;2023-05-10T00:31:35;8.07;;;7.28;;
12151;SDS011;6139;51.274;7.128;2023-05-10T00:32:36;9.20;;;7.32;;
12151;SDS011;6139;51.274;7.128;2023-05-10T00:33:38;8.40;;;7.50;;
12151;SDS011;6139;51.274;7.128;2023-05-10T00:34:41;8.40;;;6.95;;
12151;SDS011;6139;51.274;7.128;2023-05-10T00:35:43;7.70;;;6.65;;
12151;SDS011;6139;51.274;7.128;2023-05-10T00:36:44;10.80;;;6.88;;
12151;SDS011;6139;51.274;7.128;2023-05-10T00:37:46;7.80;;;7.00;;
12151;SDS011;6139;51.274;7.128;2023-05-10T00:38:47;8.10;;;6.90;;
12151;SDS011;6139;51.274;7.128;2023-05-10T00:39:49;7.95;;;7.10;;
12151;SDS011;6139;51.274;7.128;2023-05-10T00:40:50;8.75;;;7.45;;
12151;SDS011;6139;51.274;7.128;2023-05-10T00:41:59;8.10;;;6.95;;
12151;SDS011;6139;51.274;7.128;2023-05-10T00:43:01;8.68;;;6.28;;
12151;SDS011;6139;51.274;7.128;2023-05-10T00:44:03;7.18;;;6.43;;
12151;SDS011;6139;51.274;7.128;2023-05-10T00:45:05;7.65;;;6.60;;
12151;SDS011;6139;51.274;7.128;2023-05-10T00:46:07;8.85;;;7.03;;
12151;SDS011;6139;51.274;7.128;2023-05-10T00:47:08;8.95;;;6.90;;
12151;SDS011;6139;51.274;7.128;2023-05-10T00:48:11;7.80;;;7.00;;
12151;SDS011;6139;51.274;7.128;2023-05-10T00:49:13;8.80;;;7.40;;
12151;SDS011;6139;51.274;7.128;2023-05-10T00:50:16;9.32;;;6.70;;
12151;SDS011;6139;51.274;7.128;2023-05-10T00:51:18;6.80;;;6.10;;
12151;SDS011;6139;51.274;7.128;2023-05-10T00:52:20;7.28;;;6.57;;
12151;SDS011;6139;51.274;7.128;2023-05-10T00:53:21;7.32;;;6.60;;
12151;SDS011;6139;51.274;7.128;2023-05-10T00:54:23;7.28;;;6.57;;
12151;SDS011;6139;51.274;7.128;2023-05-10T00:55:25;7.00;;;6.30;;
12151;SDS011;6139;51.274;7.128;2023-05-10T00:56:27;8.13;;;6.72;;
12151;SDS011;6139;51.274;7.128;2023-05-10T00:57:29;8.40;;;6.53;;
12151;SDS011;6139;51.274;7.128;2023-05-10T00:58:32;7.25;;;6.55;;
12151;SDS011;6139;51.274;7.128;2023-05-10T00:59:33;8.50;;;6.68;;
12151;SDS011;6139;51.274;7.128;2023-05-10T01:00:35;7.53;;;6.70;;
12151;SDS011;6139;51.274;7.128;2023-05-10T01:01:38;8.40;;;7.35;;
12151;SDS011;6139;51.274;7.128;2023-05-10T01:02:40;7.43;;;6.72;;
12151;SDS011;6139;51.274;7.128;2023-05-10T01:03:42;7.32;;;6.57;;
12151;SDS011;6139;51.274;7.128;2023-05-10T01:04:44;7.40;;;6.60;;
12151;SDS011;6139;51.274;7.128;2023-05-10T01:05:47;8.57;;;6.60;;
12151;SDS011;6139;51.274;7.128;2023-05-10T01:06:50;8.52;;;6.63;;
12151;SDS011;6139;51.274;7.128;2023-05-10T01:07:51;8.07;;;6.50;;
12151;SDS011;6139;51.274;7.128;2023-05-10T01:08:53;7.05;;;6.35;;
12151;SDS011;6139;51.274;7.128;2023-05-10T01:09:54;7.72;;;6.72;;
12151;SDS011;6139;51.274;7.128;2023-05-10T01:10:57;7.55;;;6.50;;
12151;SDS011;6139;51.274;7.128;2023-05-10T01:11:58;7.65;;;6.78;;
12151;SDS011;6139;51.274;7.128;2023-05-10T01:13:03;8.32;;;6.95;;
12151;SDS011;6139;51.274;7.128;2023-05-10T01:14:04;7.28;;;6.57;;
12151;SDS011;6139;51.274;7.128;2023-05-10T01:15:07;7.72;;;6.93;;
12151;SDS011;6139;51.274;7.128;2023-05-10T01:16:11;7.85;;;6.78;;
12151;SDS011;6139;51.274;7.128;2023-05-10T01:17:14;7.97;;;7.15;;
12151;SDS011;6139;51.274;7.128;2023-05-10T01:18:16;8.48;;;7.57;;
12151;SDS011;6139;51.274;7.128;2023-05-10T01:19:22;7.78;;;6.97;;
12151;SDS011;6139;51.274;7.128;2023-05-10T01:20:25;7.30;;;6.60;;
12151;SDS011;6139;51.274;7.128;2023-05-10T01:21:38;9.60;;;7.05;;
12151;SDS011;6139;51.274;7.128;2023-05-10T01:26:13;9.55;;;7.03;;
12151;SDS011;6139;51.274;7.128;2023-05-10T01:27:25;7.85;;;7.03;;
12151;SDS011;6139;51.274;7.128;2023-05-10T01:28:56;8.25;;;7.20;;
12151;SDS011;6139;51.274;7.128;2023-05-10T01:30:31;8.52;;;7.15;;
12151;SDS011;6139;51.274;7.128;2023-05-10T01:31:59;8.23;;;7.22;;
12151;SDS011;6139;51.274;7.128;2023-05-10T01:33:08;8.82;;;7.82;;
12151;SDS011;6139;51.274;7.128;2023-05-10T01:34:16;8.65;;;7.68;;
12151;SDS011;6139;51.274;7.128;2023-05-10T01:35:22;9.88;;;7.75;;
12151;SDS011;6139;51.274;7.128;2023-05-10T01:36:32;9.05;;;7.70;;
12151;SDS011;6139;51.274;7.128;2023-05-10T01:37:44;9.93;;;7.95;;
12151;SDS011;6139;51.274;7.128;2023-05-10T01:38:52;9.98;;;8.68;;
12151;SDS011;6139;51.274;7.128;2023-05-10T01:40:00;9.35;;;8.35;;
12151;SDS011;6139;51.274;7.128;2023-05-10T01:41:08;10.10;;;9.02;;
12151;SDS011;6139;51.274;7.128;2023-05-10T01:42:17;10.40;;;9.30;;
12151;SDS011;6139;51.274;7.128;2023-05-10T01:43:24;10.38;;;9.35;;
12151;SDS011;6139;51.274;7.128;2023-05-10T01:44:29;10.65;;;9.50;;
12151;SDS011;6139;51.274;7.128;2023-05-10T01:45:37;11.63;;;10.43;;
12151;SDS011;6139;51.274;7.128;2023-05-10T01:46:41;11.57;;;10.38;;
12151;SDS011;6139;51.274;7.128;2023-05-10T01:47:46;11.82;;;10.57;;
12151;SDS011;6139;51.274;7.128;2023-05-10T01:48:51;13.48;;;11.13;;
12151;SDS011;6139;51.274;7.128;2023-05-10T01:49:55;12.75;;;11.25;;
12151;SDS011;6139;51.274;7.128;2023-05-10T01:50:59;13.15;;;11.68;;
12151;SDS011;6139;51.274;7.128;2023-05-10T01:52:03;13.82;;;12.43;;
12151;SDS011;6139;51.274;7.128;2023-05-10T01:53:08;13.90;;;12.43;;
12151;SDS011;6139;51.274;7.128;2023-05-10T01:54:13;14.23;;;12.65;;
12151;SDS011;6139;51.274;7.128;2023-05-10T01:55:16;14.52;;;12.38;;
12151;SDS011;6139;51.274;7.128;2023-05-10T01:56:22;14.93;;;11.98;;
12151;SDS011;6139;51.274;7.128;2023-05-10T01:57:26;13.55;;;12.15;;
12151;SDS011;6139;51.274;7.128;2023-05-10T01:58:32;12.52;;;11.23;;
12151;SDS011;6139;51.274;7.128;2023-05-10T01:59:35;14.05;;;12.63;;
12151;SDS011;6139;51.274;7.128;2023-05-10T02:00:42;13.35;;;11.95;;
12151;SDS011;6139;51.274;7.128;2023-05-10T02:01:44;13.55;;;12.15;;
12151;SDS011;6139;51.274;7.128;2023-05-10T02:02:49;11.88;;;10.68;;
12151;SDS011;6139;51.274;7.128;2023-05-10T02:03:52;10.32;;;9.30;;
12151;SDS011;6139;51.274;7.128;2023-05-10T02:04:57;10.50;;;9.13;;
12151;SDS011;6139;51.274;7.128;2023-05-10T02:05:59;10.02;;;9.02;;
12151;SDS011;6139;51.274;7.128;2023-05-10T02:07:01;9.75;;;8.75;;
12151;SDS011;6139;51.274;7.128;2023-05-10T02:08:03;11.13;;;10.02;;
12151;SDS011;6139;51.274;7.128;2023-05-10T02:09:07;11.38;;;10.23;;
12151;SDS011;6139;51.274;7.128;2023-05-10T02:10:11;10.13;;;9.13;;
12151;SDS011;6139;51.274;7.128;2023-05-10T02:11:14;11.38;;;9.98;;
12151;SDS011;6139;51.274;7.128;2023-05-10T02:12:17;9.88;;;8.88;;
12151;SDS011;6139;51.274;7.128;2023-05-10T02:13:21;8.65;;;7.80;;
12151;SDS011;6139;51.274;7.128;2023-05-10T02:14:24;8.55;;;7.68;;
12151;SDS011;6139;51.274;7.128;2023-05-10T02:15:28;7.78;;;7.07;;
12151;SDS011;6139;51.274;7.128;2023-05-10T02:16:30;7.70;;;7.00;;
12151;SDS011;6139;51.274;7.128;2023-05-10T02:17:34;6.90;;;6.03;;
12151;SDS011;6139;51.274;7.128;2023-05-10T02:18:38;7.00;;;6.30;;
12151;SDS011;6139;51.274;7.128;2023-05-10T02:19:41;7.60;;;6.38;;
12151;SDS011;6139;51.274;7.128;2023-05-10T02:20:46;7.55;;;6.75;;
12151;SDS011;6139;51.274;7.128;2023-05-10T02:21:49;7.90;;;7.10;;
12151;SDS011;6139;51.274;7.128;2023-05-10T02:22:52;8.40;;;7.50;;
12151;SDS011;6139;51.274;7.128;2023-05-10T02:23:57;8.65;;;7.75;;
12151;SDS011;6139;51.274;7.128;2023-05-10T02:24:59;9.82;;;8.82;;
12151;SDS011;6139;51.274;7.128;2023-05-10T02:26:02;10.38;;;9.38;;
12151;SDS011;6139;51.274;7.128;2023-05-10T02:27:06;9.75;;;8.75;;
12151;SDS011;6139;51.274;7.128;2023-05-10T02:28:09;9.13;;;8.27;;
12151;SDS011;6139;51.274;7.128;2023-05-10T02:29:12;13.57;;;8.93;;
12151;SDS011;6139;51.274;7.128;2023-05-10T02:30:15;9.40;;;8.50;;
12151;SDS011;6139;51.274;7.128;2023-05-10T02:31:17;9.23;;;8.32;;
12151;SDS011;6139;51.274;7.128;2023-05-10T02:32:20;9.32;;;7.45;;
12151;SDS011;6139;51.274;7.128;2023-05-10T02:33:22;7.93;;;7.13;;
12151;SDS011;6139;51.274;7.128;2023-05-10T02:34:27;8.93;;;8.02;;
12151;SDS011;6139;51.274;7.128;2023-05-10T02:35:30;9.07;;;8.18;;
12151;SDS011;6139;51.274;7.128;2023-05-10T02:36:33;9.32;;;8.43;;
12151;SDS011;6139;51.274;7.128;2023-05-10T02:37:35;11.07;;;9.85;;
12151;SDS011;6139;51.274;7.128;2023-05-10T02:38:39;10.15;;;9.15;;
12151;SDS011;6139;51.274;7.128;2023-05-10T02:39:40;10.68;;;9.57;;
12151;SDS011;6139;51.274;7.128;2023-05-10T02:40:44;11.20;;;10.13;;
12151;SDS011;6139;51.274;7.128;2023-05-10T02:41:46;11.27;;;10.15;;
12151;SDS011;6139;51.274;7.128;2023-05-10T02:42:50;11.25;;;10.05;;
12151;SDS011;6139;51.274;7.128;2023-05-10T02:43:57;11.45;;;10.35;;
12151;SDS011;6139;51.274;7.128;2023-05-10T02:45:02;11.02;;;9.93;;
12151;SDS011;6139;51.274;7.128;2023-05-10T02:46:09;12.55;;;10.48;;
12151;SDS011;6139;51.274;7.128;2023-05-10T02:47:11;10.48;;;9.07;;
12151;SDS011;6139;51.274;7.128;2023-05-10T02:48:12;10.98;;;9.88;;
12151;SDS011;6139;51.274;7.128;2023-05-10T02:49:16;10.82;;;9.18;;
12151;SDS011;6139;51.274;7.128;2023-05-10T02:50:18;9.38;;;8.48;;
12151;SDS011;6139;51.274;7.128;2023-05-10T02:51:20;9.25;;;8.35;;
12151;SDS011;6139;51.274;7.128;2023-05-10T02:52:28;9.05;;;8.15;;
12151;SDS011;6139;51.274;7.128;2023-05-10T02:53:38;9.32;;;8.43;;
12151;SDS011;6139;51.274;7.128;2023-05-10T02:54:45;8.20;;;7.38;;
12151;SDS011;6139;51.274;7.128;2023-05-10T02:55:51;8.23;;;7.30;;
12151;SDS011;6139;51.274;7.128;2023-05-10T02:56:58;9.13;;;7.88;;
12151;SDS011;6139;51.274;7.128;2023-05-10T02:58:01;10.15;;;8.27;;
12151;SDS011;6139;51.274;7.128;2023-05-10T02:59:03;9.38;;;8.48;;
12151;SDS011;6139;51.274;7.128;2023-05-10T03:00:06;8.57;;;7.68;;
12151;SDS011;6139;51.274;7.128;2023-05-10T03:01:08;10.32;;;7.95;;
12151;SDS011;6139;51.274;7.128;2023-05-10T03:02:10;9.02;;;8.13;;
12151;SDS011;6139;51.274;7.128;2023-05-10T03:03:12;9.52;;;8.52;;
12151;SDS011;6139;51.274;7.128;2023-05-10T03:04:14;8.52;;;7.70;;
12151;SDS011;6139;51.274;7.128;2023-05-10T03:05:15;9.35;;;8.45;;
12151;SDS011;6139;51.274;7.128;2023-05-10T03:06:18;8.70;;;7.82;;
12151;SDS011;6139;51.274;7.128;2023-05-10T03:07:20;10.27;;;7.35;;
12151;SDS011;6139;51.274;7.128;2023-05-10T03:08:22;8.13;;;7.32;;
12151;SDS011;6139;51.274;7.128;2023-05-10T03:09:24;8.90;;;7.68;;
12151;SDS011;6139;51.274;7.128;2023-05-10T03:10:26;8.18;;;7.35;;
12151;SDS011;6139;51.274;7.128;2023-05-10T03:11:37;9.25;;;7.10;;
12151;SDS011;6139;51.274;7.128;2023-05-10T03:12:52;8.10;;;7.30;;
12151;SDS011;6139;51.274;7.128;2023-05-10T03:14:07;8.38;;;7.10;;
12151;SDS011;6139;51.274;7.128;2023-05-10T03:15:17;8.27;;;7.07;;
12151;SDS011;6139;51.274;7.128;2023-05-10T03:16:27;7.53;;;6.75;;
12151;SDS011;6139;51.274;7.128;2023-05-10T03:17:35;7.80;;;6.85;;
12151;SDS011;6139;51.274;7.128;2023-05-10T03:18:48;8.57;;;6.97;;
12151;SDS011;6139;51.274;7.128;2023-05-10T03:19:56;9.05;;;7.63;;
12151;SDS011;6139;51.274;7.128;2023-05-10T03:21:01;10.57;;;6.97;;
12151;SDS011;6139;51.274;7.128;2023-05-10T03:22:08;8.30;;;7.35;;
12151;SDS011;6139;51.274;7.128;2023-05-10T03:23:14;8.13;;;7.32;;
12151;SDS011;6139;51.274;7.128;2023-05-10T03:24:23;7.65;;;6.85;;
12151;SDS011;6139;51.274;7.128;2023-05-10T03:25:28;8.57;;;7.30;;
12151;SDS011;6139;51.274;7.128;2023-05-10T03:26:32;8.50;;;7.65;;
12151;SDS011;6139;51.274;7.128;2023-05-10T03:27:41;9.35;;;8.45;;
12151;SDS011;6139;51.274;7.128;2023-05-10T03:28:45;8.57;;;7.70;;
12151;SDS011;6139;51.274;7.128;2023-05-10T03:29:48;9.95;;;7.95;;
12151;SDS011;6139;51.274;7.128;2023-05-10T03:30:52;9.27;;;8.30;;
12151;SDS011;6139;51.274;7.128;2023-05-10T03:31:53;10.20;;;8.73;;
12151;SDS011;6139;51.274;7.128;2023-05-10T03:32:55;10.55;;;9.10;;
12151;SDS011;6139;51.274;7.128;2023-05-10T03:33:57;11.32;;;9.25;;
12151;SDS011;6139;51.274;7.128;2023-05-10T03:35:00;10.75;;;9.63;;
12151;SDS011;6139;51.274;7.128;2023-05-10T03:36:06;12.65;;;11.13;;
12151;SDS011;6139;51.274;7.128;2023-05-10T03:37:10;12.55;;;11.00;;
12151;SDS011;6139;51.274;7.128;2023-05-10T03:38:11;13.40;;;11.05;;
12151;SDS011;6139;51.274;7.128;2023-05-10T03:39:13;12.98;;;10.88;;
12151;SDS011;6139;51.274;7.128;2023-05-10T03:40:14;11.57;;;10.38;;
12151;SDS011;6139;51.274;7.128;2023-05-10T03:41:17;12.73;;;10.57;;
12151;SDS011;6139;51.274;7.128;2023-05-10T03:42:18;12.43;;;10.50;;
12151;SDS011;6139;51.274;7.128;2023-05-10T03:43:20;11.43;;;10.23;;
12151;SDS011;6139;51.274;7.128;2023-05-10T03:44:21;11.13;;;9.93;;
12151;SDS011;6139;51.274;7.128;2023-05-10T03:45:24;11.30;;;9.82;;
12151;SDS011;6139;51.274;7.128;2023-05-10T03:46:25;10.68;;;9.57;;
12151;SDS011;6139;51.274;7.128;2023-05-10T03:47:27;12.10;;;10.50;;
12151;SDS011;6139;51.274;7.128;2023-05-10T03:48:29;12.02;;;10.70;;
12151;SDS011;6139;51.274;7.128;2023-05-10T03:49:31;12.60;;;11.02;;
12151;SDS011;6139;51.274;7.128;2023-05-10T03:50:33;12.23;;;10.10;;
12151;SDS011;6139;51.274;7.128;2023-05-10T03:51:35;11.32;;;9.98;;
12151;SDS011;6139;51.274;7.128;2023-05-10T03:52:37;12.70;;;11.40;;
12151;SDS011;6139;51.274;7.128;2023-05-10T03:53:40;15.15;;;12.82;;
12151;SDS011;6139;51.274;7.128;2023-05-10T03:54:41;16.50;;;12.50;;
12151;SDS011;6139;51.274;7.128;2023-05-10T03:55:43;15.68;;;12.95;;
12151;SDS011;6139;51.274;7.128;2023-05-10T03:56:44;19.15;;;13.13;;
12151;SDS011;6139;51.274;7.128;2023-05-10T03:57:48;16.27;;;13.40;;
12151;SDS011;6139;51.274;7.128;2023-05-10T03:58:50;17.25;;;13.52;;
12151;SDS011;6139;51.274;7.128;2023-05-10T03:59:52;17.35;;;13.55;;
12151;SDS011;6139;51.274;7.128;2023-05-10T04:00:53;15.65;;;13.45;;
12151;SDS011;6139;51.274;7.128;2023-05-10T04:01:55;16.13;;;13.45;;
12151;SDS011;6139;51.274;7.128;2023-05-10T04:02:56;19.05;;;13.10;;
12151;SDS011;6139;51.274;7.128;2023-05-10T04:03:58;16.00;;;13.02;;
12151;SDS011;6139;51.274;7.128;2023-05-10T04:04:59;15.73;;;12.60;;
12151;SDS011;6139;51.274;7.128;2023-05-10T04:06:01;18.05;;;12.98;;
12151;SDS011;6139;51.274;7.128;2023-05-10T04:07:03;15.93;;;12.65;;
12151;SDS011;6139;51.274;7.128;2023-05-10T04:08:06;15.65;;;13.27;;
12151;SDS011;6139;51.274;7.128;2023-05-10T04:09:07;15.52;;;12.52;;
12151;SDS011;6139;51.274;7.128;2023-05-10T04:10:09;16.75;;;12.98;;
12151;SDS011;6139;51.274;7.128;2023-05-10T04:11:11;15.20;;;12.57;;
12151;SDS011;6139;51.274;7.128;2023-05-10T04:12:14;14.80;;;11.10;;
12151;SDS011;6139;51.274;7.128;2023-05-10T04:13:15;17.20;;;12.13;;
12151;SDS011;6139;51.274;7.128;2023-05-10T04:14:17;14.77;;;12.02;;
12151;SDS011;6139;51.274;7.128;2023-05-10T04:15:18;14.70;;;11.07;;
12151;SDS011;6139;51.274;7.128;2023-05-10T04:16:20;14.15;;;11.45;;
12151;SDS011;6139;51.274;7.128;2023-05-10T04:17:21;13.73;;;10.73;;
12151;SDS011;6139;51.274;7.128;2023-05-10T04:18:22;14.00;;;11.38;;
12151;SDS011;6139;51.274;7.128;2023-05-10T04:19:23;14.27;;;10.55;;
12151;SDS011;6139;51.274;7.128;2023-05-10T04:20:29;11.95;;;10.43;;
12151;SDS011;6139;51.274;7.128;2023-05-10T04:21:32;13.93;;;10.85;;
12151;SDS011;6139;51.274;7.128;2023-05-10T04:22:34;13.98;;;10.55;;
12151;SDS011;6139;51.274;7.128;2023-05-10T04:23:36;13.55;;;10.43;;
12151;SDS011;6139;51.274;7.128;2023-05-10T04:24:38;14.65;;;11.13;;
12151;SDS011;6139;51.274;7.128;2023-05-10T04:25:40;14.80;;;10.35;;
12151;SDS011;6139;51.274;7.128;2023-05-10T04:26:42;12.50;;;9.88;;
12151;SDS011;6139;51.274;7.128;2023-05-10T04:27:42;14.73;;;10.63;;
12151;SDS011;6139;51.274;7.128;2023-05-10T04:28:44;14.68;;;11.43;;
12151;SDS011;6139;51.274;7.128;2023-05-10T04:29:45;14.15;;;10.85;;
12151;SDS011;6139;51.274;7.128;2023-05-10T04:30:47;13.88;;;11.73;;
12151;SDS011;6139;51.274;7.128;2023-05-10T04:31:48;17.27;;;12.32;;
12151;SDS011;6139;51.274;7.128;2023-05-10T04:32:51;17.38;;;13.23;;
12151;SDS011;6139;51.274;7.128;2023-05-10T04:33:52;17.63;;;13.25;;
12151;SDS011;6139;51.274;7.128;2023-05-10T04:34:53;15.98;;;12.93;;
12151;SDS011;6139;51.274;7.128;2023-05-10T04:35:54;18.17;;;13.68;;
12151;SDS011;6139;51.274;7.128;2023-05-10T04:36:56;19.65;;;14.43;;
12151;SDS011;6139;51.274;7.128;2023-05-10T04:37:57;19.33;;;14.05;;
12151;SDS011;6139;51.274;7.128;2023-05-10T04:39:01;20.13;;;14.52;;
12151;SDS011;6139;51.274;7.128;2023-05-10T04:40:03;19.15;;;14.98;;
12151;SDS011;6139;51.274;7.128;2023-05-10T04:41:06;21.85;;;16.30;;
12151;SDS011;6139;51.274;7.128;2023-05-10T04:42:08;22.25;;;16.80;;
12151;SDS011;6139;51.274;7.128;2023-05-10T04:43:10;23.50;;;17.10;;
12151;SDS011;6139;51.274;7.128;2023-05-10T04:44:11;23.23;;;17.70;;
12151;SDS011;6139;51.274;7.128;2023-05-10T04:45:13;31.50;;;20.42;;
12151;SDS011;6139;51.274;7.128;2023-05-10T04:46:14;26.63;;;18.48;;
12151;SDS011;6139;51.274;7.128;2023-05-10T04:47:16;25.92;;;17.90;;
12151;SDS011;6139;51.274;7.128;2023-05-10T04:48:17;27.60;;;20.23;;
12151;SDS011;6139;51.274;7.128;2023-05-10T04:49:19;26.27;;;19.40;;
12151;SDS011;6139;51.274;7.128;2023-05-10T04:50:20;26.38;;;18.70;;
12151;SDS011;6139;51.274;7.128;2023-05-10T04:51:22;28.98;;;19.50;;
12151;SDS011;6139;51.274;7.128;2023-05-10T04:52:23;28.85;;;20.05;;
12151;SDS011;6139;51.274;7.128;2023-05-10T04:53:26;25.88;;;19.27;;
12151;SDS011;6139;51.274;7.128;2023-05-10T04:54:28;24.48;;;18.05;;
12151;SDS011;6139;51.274;7.128;2023-05-10T04:55:30;23.42;;;18.42;;
12151;SDS011;6139;51.274;7.128;2023-05-10T04:56:31;24.58;;;18.30;;
12151;SDS011;6139;51.274;7.128;2023-05-10T04:57:33;25.85;;;18.25;;
12151;SDS011;6139;51.274;7.128;2023-05-10T04:58:34;26.30;;;18.38;;
12151;SDS011;6139;51.274;7.128;2023-05-10T04:59:36;29.17;;;18.20;;
12151;SDS011;6139;51.274;7.128;2023-05-10T05:00:37;26.27;;;18.00;;
12151;SDS011;6139;51.274;7.128;2023-05-10T05:01:40;21.80;;;17.50;;
12151;SDS011;6139;51.274;7.128;2023-05-10T05:02:42;25.08;;;18.63;;
12151;SDS011;6139;51.274;7.128;2023-05-10T05:03:45;23.80;;;17.70;;
12151;SDS011;6139;51.274;7.128;2023-05-10T05:04:46;24.77;;;18.27;;
12151;SDS011;6139;51.274;7.128;2023-05-10T05:05:48;25.73;;;18.67;;
12151;SDS011;6139;51.274;7.128;2023-05-10T05:06:49;26.33;;;20.00;;
12151;SDS011;6139;51.274;7.128;2023-05-10T05:07:51;24.98;;;17.95;;
12151;SDS011;6139;51.274;7.128;2023-05-10T05:08:52;26.08;;;19.35;;
12151;SDS011;6139;51.274;7.128;2023-05-10T05:09:55;29.95;;;19.17;;
12151;SDS011;6139;51.274;7.128;2023-05-10T05:10:56;29.20;;;19.15;;
12151;SDS011;6139;51.274;7.128;2023-05-10T05:11:59;24.20;;;17.60;;
12151;SDS011;6139;51.274;7.128;2023-05-10T05:13:01;27.38;;;19.85;;
12151;SDS011;6139;51.274;7.128;2023-05-10T05:14:02;26.50;;;19.20;;
12151;SDS011;6139;51.274;7.128;2023-05-10T05:15:04;23.75;;;18.73;;
12151;SDS011;6139;51.274;7.128;2023-05-10T05:16:06;27.80;;;19.23;;
12151;SDS011;6139;51.274;7.128;2023-05-10T05:17:08;30.00;;;19.85;;
12151;SDS011;6139;51.274;7.128;2023-05-10T05:18:09;24.75;;;19.33;;
12151;SDS011;6139;51.274;7.128;2023-05-10T05:19:11;27.23;;;19.25;;
12151;SDS011;6139;51.274;7.128;2023-05-10T05:20:12;27.42;;;19.20;;
12151;SDS011;6139;51.274;7.128;2023-05-10T05:21:14;27.13;;;19.60;;
12151;SDS011;6139;51.274;7.128;2023-05-10T05:22:16;27.30;;;19.55;;
12151;SDS011;6139;51.274;7.128;2023-05-10T05:23:19;27.63;;;19.60;;
12151;SDS011;6139;51.274;7.128;2023-05-10T05:24:21;25.55;;;19.20;;
12151;SDS011;6139;51.274;7.128;2023-05-10T05:25:24;28.02;;;19.20;;
12151;SDS011;6139;51.274;7.128;2023-05-10T05:26:25;26.15;;;18.73;;
12151;SDS011;6139;51.274;7.128;2023-05-10T05:27:27;26.85;;;18.45;;
12151;SDS011;6139;51.274;7.128;2023-05-10T05:28:28;27.15;;;19.30;;
12151;SDS011;6139;51.274;7.128;2023-05-10T05:29:33;26.77;;;18.45;;
12151;SDS011;6139;51.274;7.128;2023-05-10T05:30:34;25.85;;;18.08;;
12151;SDS011;6139;51.274;7.128;2023-05-10T05:31:36;25.17;;;18.02;;
12151;SDS011;6139;51.274;7.128;2023-05-10T05:32:37;23.52;;;18.13;;
12151;SDS011;6139;51.274;7.128;2023-05-10T05:33:39;25.65;;;18.90;;
12151;SDS011;6139;51.274;7.128;2023-05-10T05:34:39;26.17;;;18.85;;
12151;SDS011;6139;51.274;7.128;2023-05-10T05:35:41;26.33;;;18.27;;
12151;SDS011;6139;51.274;7.128;2023-05-10T05:36:44;26.80;;;19.45;;
12151;SDS011;6139;51.274;7.128;2023-05-10T05:37:46;26.70;;;19.77;;
12151;SDS011;6139;51.274;7.128;2023-05-10T05:38:47;27.45;;;19.48;;
12151;SDS011;6139;51.274;7.128;2023-05-10T05:39:49;27.25;;;19.13;;
12151;SDS011;6139;51.274;7.128;2023-05-10T05:40:52;25.70;;;19.10;;
12151;SDS011;6139;51.274;7.128;2023-05-10T05:41:54;23.98;;;18.65;;
12151;SDS011;6139;51.274;7.128;2023-05-10T05:42:55;26.45;;;18.05;;
12151;SDS011;6139;51.274;7.128;2023-05-10T05:43:57;25.48;;;18.70;;
12151;SDS011;6139;51.274;7.128;2023-05-10T05:44:58;27.90;;;19.13;;
12151;SDS011;6139;51.274;7.128;2023-05-10T05:46:00;25.10;;;18.42;;
12151;SDS011;6139;51.274;7.128;2023-05-10T05:47:01;23.75;;;18.17;;
12151;SDS011;6139;51.274;7.128;2023-05-10T05:48:03;24.77;;;18.20;;
12151;SDS011;6139;51.274;7.128;2023-05-10T05:49:05;25.30;;;17.90;;
12151;SDS011;6139;51.274;7.128;2023-05-10T05:50:07;26.88;;;18.80;;
12151;SDS011;6139;51.274;7.128;2023-05-10T05:51:09;27.30;;;19.58;;
12151;SDS011;6139;51.274;7.128;2023-05-10T05:52:11;28.85;;;18.83;;
12151;SDS011;6139;51.274;7.128;2023-05-10T05:53:12;26.95;;;18.48;;
12151;SDS011;6139;51.274;7.128;2023-05-10T05:54:14;27.27;;;18.95;;
12151;SDS011;6139;51.274;7.128;2023-05-10T05:55:15;26.10;;;18.83;;
12151;SDS011;6139;51.274;7.128;2023-05-10T05:56:19;24.30;;;18.30;;
12151;SDS011;6139;51.274;7.128;2023-05-10T05:57:24;25.67;;;19.35;;
12151;SDS011;6139;51.274;7.128;2023-05-10T05:58:26;27.17;;;19.67;;
12151;SDS011;6139;51.274;7.128;2023-05-10T05:59:28;27.48;;;18.52;;
12151;SDS011;6139;51.274;7.128;2023-05-10T06:00:29;26.25;;;18.08;;
12151;SDS011;6139;51.274;7.128;2023-05-10T06:01:31;26.98;;;18.67;;
12151;SDS011;6139;51.274;7.128;2023-05-10T06:02:32;25.08;;;18.65;;
12151;SDS011;6139;51.274;7.128;2023-05-10T06:03:34;27.10;;;18.23;;
12151;SDS011;6139;51.274;7.128;2023-05-10T06:04:35;26.10;;;18.35;;
12151;SDS011;6139;51.274;7.128;2023-05-10T06:05:37;23.85;;;17.60;;
12151;SDS011;6139;51.274;7.128;2023-05-10T06:06:39;23.85;;;17.67;;
12151;SDS011;6139;51.274;7.128;2023-05-10T06:07:41;22.20;;;17.40;;
12151;SDS011;6139;51.274;7.128;2023-05-10T06:08:42;25.63;;;17.80;;
12151;SDS011;6139;51.274;7.128;2023-05-10T06:09:44;23.48;;;17.55;;
12151;SDS011;6139;51.274;7.128;2023-05-10T06:10:45;25.23;;;17.70;;
12151;SDS011;6139;51.274;7.128;2023-05-10T06:11:48;27.30;;;18.27;;
12151;SDS011;6139;51.274;7.128;2023-05-10T06:12:49;23.35;;;16.27;;
12151;SDS011;6139;51.274;7.128;2023-05-10T06:13:51;25.02;;;17.17;;
12151;SDS011;6139;51.274;7.128;2023-05-10T06:14:52;23.92;;;16.75;;
12151;SDS011;6139;51.274;7.128;2023-05-10T06:15:54;24.17;;;17.05;;
12151;SDS011;6139;51.274;7.128;2023-05-10T06:16:55;26.35;;;17.38;;
12151;SDS011;6139;51.274;7.128;2023-05-10T06:17:57;23.60;;;17.10;;
12151;SDS011;6139;51.274;7.128;2023-05-10T06:18:58;24.70;;;17.27;;
12151;SDS011;6139;51.274;7.128;2023-05-10T06:19:59;22.73;;;16.88;;
12151;SDS011;6139;51.274;7.128;2023-05-10T06:21:00;24.90;;;17.25;;
12151;SDS011;6139;51.274;7.128;2023-05-10T06:22:02;24.90;;;16.75;;
12151;SDS011;6139;51.274;7.128;2023-05-10T06:23:04;24.65;;;18.08;;